Time;durP1;ratioP1;P1;durP2;ratioP2;P2;SDS_P1;SDS_P2;PMS_P1;PMS_P2;Temp;Humidity;BMP_temperature;BMP_pressure;BME280_temperature;BME280_humidity;BME280_pressure;Samples;Min_cycle;Max_cycle;Signal;HPM_P1;HPM_P2
2022/07/16 00:03:35;;;;;;;5.70;2.70;;;;;;;15.44;62.61;102046.44;5087878;28;20059;-82
2022/07/16 00:06:00;;;;;;;6.40;2.58;;;;;;;15.46;62.72;102036.47;5092115;28;20024;-82
2022/07/16 00:08:26;;;;;;;5.63;2.75;;;;;;;15.45;62.39;102040.94;5092172;28;20056;-83
2022/07/16 00:10:51;;;;;;;6.07;2.80;;;;;;;15.41;62.82;102030.63;5078687;28;20024;-82
2022/07/16 00:13:16;;;;;;;7.22;2.83;;;;;;;15.47;62.38;102043.50;5088997;28;20043;-82
2022/07/16 00:15:42;;;;;;;4.63;2.50;;;;;;;15.47;62.34;102041.69;5086215;28;20082;-82
2022/07/16 00:20:51;;;;;;;4.38;2.75;;;;;;;15.44;62.92;102043.78;5085790;28;20191;-82
2022/07/16 00:23:16;;;;;;;4.13;2.40;;;;;;;15.49;62.51;102044.25;5073390;28;20489;-82
2022/07/16 00:25:42;;;;;;;6.10;2.60;;;;;;;15.46;62.37;102048.00;5075611;28;20020;-82
2022/07/16 00:28:07;;;;;;;4.38;2.80;;;;;;;15.49;62.53;102052.28;5088709;28;20083;-83
2022/07/16 00:30:33;;;;;;;8.10;3.00;;;;;;;15.50;62.19;102057.53;5077487;28;20024;-82
2022/07/16 00:32:59;;;;;;;8.40;3.20;;;;;;;15.47;62.34;102059.56;5091527;28;20042;-83
2022/07/16 00:35:24;;;;;;;4.32;2.70;;;;;;;15.47;62.38;102051.53;5091355;28;20032;-83
2022/07/16 00:37:49;;;;;;;5.75;2.83;;;;;;;15.48;62.61;102055.94;5091393;28;20030;-82
2022/07/16 00:40:15;;;;;;;5.43;2.78;;;;;;;15.49;62.67;102053.13;5091716;28;20052;-82
2022/07/16 00:42:40;;;;;;;6.88;3.20;;;;;;;15.50;62.90;102052.19;5085940;28;20501;-82
2022/07/16 00:45:07;;;;;;;6.00;2.60;;;;;;;15.52;62.79;102054.69;5091356;28;20440;-82
2022/07/16 00:47:33;;;;;;;4.70;2.88;;;;;;;15.49;62.77;102058.50;5053791;28;20328;-81
2022/07/16 00:49:58;;;;;;;4.40;3.08;;;;;;;15.50;63.54;102048.63;5083130;28;20028;-82
2022/07/16 00:52:23;;;;;;;6.95;2.97;;;;;;;15.53;63.43;102054.59;5139778;22;20054;-46
2022/07/16 00:54:49;;;;;;;5.25;3.20;;;;;;;15.56;63.09;102055.34;5113500;28;20058;-45
2022/07/16 00:57:14;;;;;;;5.20;2.58;;;;;;;15.58;62.67;102048.88;5103079;28;20066;-47
2022/07/16 00:59:40;;;;;;;3.83;2.80;;;;;;;15.59;63.10;102050.59;5109468;28;20028;-47
2022/07/16 01:02:05;;;;;;;5.75;3.13;;;;;;;15.59;63.85;102047.91;5113140;28;20012;-46
2022/07/16 01:04:31;;;;;;;4.55;2.83;;;;;;;15.58;63.58;102048.88;5113722;28;20028;-46
2022/07/16 01:06:56;;;;;;;4.50;3.00;;;;;;;15.64;62.96;102052.91;5092471;28;20062;-45
2022/07/16 01:09:23;;;;;;;6.45;3.30;;;;;;;15.64;63.30;102047.56;5112853;28;20090;-46
2022/07/16 01:11:48;;;;;;;4.80;3.15;;;;;;;15.66;63.37;102050.97;5108650;28;20008;-45
2022/07/16 01:14:15;;;;;;;5.93;3.40;;;;;;;15.67;62.98;102048.16;5093316;28;20050;-47
2022/07/16 01:16:40;;;;;;;8.15;2.97;;;;;;;15.66;63.46;102046.44;5093790;28;20036;-47
2022/07/16 01:19:08;;;;;;;6.60;3.05;;;;;;;15.69;63.43;102034.66;5101215;28;20020;-46
2022/07/16 01:21:33;;;;;;;6.05;3.30;;;;;;;15.69;62.94;102032.81;5103048;28;20092;-48
2022/07/16 01:23:58;;;;;;;6.07;2.97;;;;;;;15.73;63.29;102030.75;5110248;28;20004;-45
2022/07/16 01:26:24;;;;;;;7.65;3.35;;;;;;;15.72;62.89;102037.94;5098618;28;20032;-45
2022/07/16 01:28:49;;;;;;;5.50;2.88;;;;;;;15.72;63.22;102032.56;5085137;28;20020;-46
2022/07/16 01:31:14;;;;;;;5.68;3.05;;;;;;;15.80;62.97;102028.47;5110395;28;20052;-48
2022/07/16 01:33:41;;;;;;;4.93;2.60;;;;;;;15.79;62.28;102041.00;5098127;28;20080;-48
2022/07/16 01:36:13;;;;;;;4.38;2.97;;;;;;;15.78;63.01;102043.81;5117478;28;20023;-45
2022/07/16 01:38:41;;;;;;;3.35;2.60;;;;;;;15.77;62.68;102042.09;5117019;28;20078;-47
2022/07/16 01:41:08;;;;;;;7.57;2.88;;;;;;;15.77;62.68;102042.09;5113041;28;20084;-48
2022/07/16 01:43:34;;;;;;;4.25;2.35;;;;;;;15.77;62.89;102042.09;5117495;28;20055;-48
2022/07/16 01:45:59;;;;;;;3.97;2.90;;;;;;;15.78;62.22;102050.00;5091090;28;20024;-47
2022/07/16 01:48:25;;;;;;;5.82;2.80;;;;;;;15.78;62.93;102055.38;5115652;28;20027;-45
2022/07/16 01:50:51;;;;;;;7.47;3.10;;;;;;;15.78;61.90;102044.66;5114900;28;20031;-47
2022/07/16 01:53:17;;;;;;;6.68;2.67;;;;;;;15.73;62.61;102044.97;5114436;28;20051;-45
2022/07/16 01:55:43;;;;;;;6.28;3.38;;;;;;;15.76;62.07;102046.59;5113967;28;20012;-47
2022/07/16 01:58:10;;;;;;;9.10;3.20;;;;;;;15.73;61.71;102046.81;5101570;28;20055;-47
2022/07/16 02:00:37;;;;;;;4.10;2.90;;;;;;;15.75;61.98;102041.34;5094831;28;20017;-45
2022/07/16 02:03:04;;;;;;;5.32;3.20;;;;;;;15.69;61.69;102037.34;5111200;28;20020;-45
2022/07/16 02:05:29;;;;;;;4.68;3.45;;;;;;;15.71;61.59;102046.94;5106606;28;20024;-46
2022/07/16 02:07:55;;;;;;;5.78;3.30;;;;;;;15.71;62.02;102033.53;5107386;28;20051;-48
2022/07/16 02:10:20;;;;;;;5.68;3.50;;;;;;;15.72;62.00;102037.06;5114971;28;20016;-45
2022/07/16 02:12:45;;;;;;;6.07;3.10;;;;;;;15.70;62.61;102029.19;5100966;28;20036;-48
2022/07/16 02:15:11;;;;;;;4.73;3.03;;;;;;;15.70;61.94;102033.66;5111161;28;20028;-45
2022/07/16 02:17:37;;;;;;;4.68;3.30;;;;;;;15.70;62.75;102039.88;5107316;28;20298;-46
2022/07/16 02:20:04;;;;;;;6.28;3.22;;;;;;;15.66;62.57;102033.06;5103405;28;20024;-46
2022/07/16 02:22:30;;;;;;;5.10;3.55;;;;;;;15.67;62.75;102033.91;5114430;28;20028;-46
2022/07/16 02:24:55;;;;;;;7.32;3.60;;;;;;;15.65;62.49;102031.34;5112674;28;20057;-45
2022/07/16 02:27:21;;;;;;;6.05;3.30;;;;;;;15.66;63.11;102026.84;5113632;27;20056;-45
2022/07/16 02:29:46;;;;;;;6.40;3.33;;;;;;;15.72;62.52;102026.34;5115639;28;20116;-48
2022/07/16 02:32:12;;;;;;;4.20;3.40;;;;;;;15.67;63.04;102029.41;5108299;28;20034;-47
2022/07/16 02:34:37;;;;;;;6.82;3.65;;;;;;;15.67;62.79;102024.06;5115354;28;20066;-45
2022/07/16 02:37:02;;;;;;;8.13;3.90;;;;;;;15.68;62.69;102028.41;5115036;28;20005;-45
2022/07/16 02:39:28;;;;;;;7.22;3.60;;;;;;;15.69;63.21;102032.81;5105573;28;20025;-46
2022/07/16 02:41:53;;;;;;;4.88;3.40;;;;;;;15.72;63.40;102032.56;5096818;28;20517;-47
2022/07/16 02:44:18;;;;;;;6.97;4.22;;;;;;;15.66;63.15;102021.50;5085016;28;20046;-45
2022/07/16 02:46:44;;;;;;;6.15;4.30;;;;;;;15.67;62.73;102017.81;5103682;28;20037;-46
2022/07/16 02:49:09;;;;;;;7.53;3.97;;;;;;;15.66;62.81;102016.97;5103174;28;20019;-47
2022/07/16 02:51:35;;;;;;;8.68;4.30;;;;;;;15.66;62.69;102021.50;5105432;28;20529;-45
2022/07/16 02:54:00;;;;;;;7.75;3.65;;;;;;;15.69;62.88;102018.59;5101591;28;20068;-47
2022/07/16 02:56:25;;;;;;;11.18;4.43;;;;;;;15.68;63.04;102020.38;5098494;28;20036;-48
2022/07/16 02:58:51;;;;;;;6.55;3.50;;;;;;;15.73;62.67;102026.22;5110009;28;20394;-46
2022/07/16 03:01:16;;;;;;;5.18;3.85;;;;;;;15.69;62.75;102022.09;5102565;28;20030;-47
2022/07/16 03:03:41;;;;;;;6.60;4.10;;;;;;;15.70;62.69;102029.19;5103659;28;20088;-46
2022/07/16 03:06:07;;;;;;;6.70;3.92;;;;;;;15.69;62.76;102029.28;5103568;28;20101;-47
2022/07/16 03:08:32;;;;;;;9.32;4.28;;;;;;;15.66;63.75;102027.69;5093707;28;20498;-45
2022/07/16 03:10:57;;;;;;;6.82;4.20;;;;;;;15.68;63.34;102030.25;5091177;28;20037;-45
2022/07/16 03:13:23;;;;;;;8.15;4.40;;;;;;;15.68;63.55;102039.13;5102607;28;20050;-47
2022/07/16 03:15:48;;;;;;;4.78;4.22;;;;;;;15.68;63.46;102036.47;5077202;28;20024;-46
2022/07/16 03:18:13;;;;;;;11.67;4.70;;;;;;;15.64;63.61;102044.88;5094825;28;20096;-44
2022/07/16 03:20:38;;;;;;;5.50;3.90;;;;;;;15.66;62.79;102040.25;5094366;28;20274;-46
2022/07/16 03:23:04;;;;;;;5.30;4.50;;;;;;;15.66;63.04;102040.25;5108988;28;20279;-45
2022/07/16 03:25:29;;;;;;;10.15;4.57;;;;;;;15.63;63.20;102035.97;5095281;28;20485;-46
2022/07/16 03:27:54;;;;;;;11.13;4.65;;;;;;;15.64;63.08;102045.72;5095881;28;20047;-44
2022/07/16 03:30:20;;;;;;;7.30;4.28;;;;;;;15.64;62.76;102040.38;5100358;28;20036;-45
2022/07/16 03:32:45;;;;;;;6.57;4.45;;;;;;;15.63;62.99;102044.00;5081932;28;20008;-44
2022/07/16 03:35:12;;;;;;;5.70;4.15;;;;;;;15.65;63.43;102046.56;5090364;28;20099;-45
2022/07/16 03:38:57;;;;;;;7.70;4.53;;;;;;;15.64;63.62;102051.06;5105697;28;20084;-46
2022/07/16 03:40:23;;;;;;;5.88;4.30;;;;;;;15.64;63.72;102047.56;5095639;28;20088;-48
2022/07/16 03:42:49;;;;;;;5.45;4.32;;;;;;;15.61;63.25;102053.16;5101643;28;20035;-48
2022/07/16 03:45:14;;;;;;;12.75;4.60;;;;;;;15.63;63.24;102053.88;5100814;28;20105;-46
2022/07/16 03:47:39;;;;;;;9.70;4.90;;;;;;;15.60;63.60;102057.63;5097243;28;20053;-45
2022/07/16 03:50:05;;;;;;;8.75;4.80;;;;;;;15.61;63.58;102058.50;5099278;28;20020;-45
2022/07/16 03:52:31;;;;;;;11.85;4.75;;;;;;;15.64;64.30;102058.28;5101121;28;20074;-46
2022/07/16 03:54:56;;;;;;;6.77;4.60;;;;;;;15.65;64.19;102057.28;5100832;28;20039;-49
2022/07/16 03:57:21;;;;;;;6.63;4.33;;;;;;;15.65;64.49;102062.63;5103503;28;20347;-47
2022/07/16 03:59:46;;;;;;;6.70;4.43;;;;;;;15.63;64.74;102068.09;5113485;28;20344;-47
2022/07/16 04:02:12;;;;;;;8.57;4.50;;;;;;;15.64;65.08;102071.66;5114219;28;20293;-47
2022/07/16 04:04:37;;;;;;;10.30;5.78;;;;;;;15.63;65.03;102070.78;5114621;28;20028;-47
2022/07/16 04:07:02;;;;;;;10.35;4.70;;;;;;;15.64;65.42;102072.50;5102030;28;20028;-44
2022/07/16 04:09:28;;;;;;;7.60;5.13;;;;;;;15.67;65.53;102074.06;5111586;28;20031;-46
2022/07/16 04:11:55;;;;;;;6.72;5.10;;;;;;;15.69;66.43;102069.47;5086394;28;20025;-44
2022/07/16 04:14:20;;;;;;;8.82;5.13;;;;;;;15.70;66.48;102074.72;5106669;28;20084;-44
2022/07/16 04:16:45;;;;;;;5.97;5.28;;;;;;;15.69;66.93;102080.19;5114074;28;20047;-47
2022/07/16 04:19:11;;;;;;;9.47;5.60;;;;;;;15.70;67.16;102071.16;5114150;28;20027;-44
2022/07/16 04:21:36;;;;;;;9.50;5.13;;;;;;;15.72;67.07;102077.22;5113534;28;20350;-49
2022/07/16 04:24:01;;;;;;;5.45;4.82;;;;;;;15.77;66.84;102080.47;5114138;28;20286;-48
2022/07/16 04:26:27;;;;;;;7.70;4.88;;;;;;;15.78;67.14;102081.31;5113817;28;20312;-47
2022/07/16 04:28:52;;;;;;;8.10;4.93;;;;;;;15.78;67.51;102079.47;5114192;28;20043;-48
2022/07/16 04:31:17;;;;;;;11.17;5.50;;;;;;;15.81;67.70;102092.63;5102740;28;20051;-45
2022/07/16 04:33:42;;;;;;;6.45;5.50;;;;;;;15.84;67.81;102091.53;5113979;28;20278;-46
2022/07/16 04:36:08;;;;;;;8.80;5.40;;;;;;;15.84;67.98;102087.03;5113909;28;20016;-45
2022/07/16 04:38:33;;;;;;;8.35;5.13;;;;;;;15.90;68.22;102089.22;5100400;28;20035;-46
2022/07/16 04:40:59;;;;;;;9.93;5.40;;;;;;;15.91;68.80;102087.41;5113959;28;20028;-45
2022/07/16 04:43:24;;;;;;;9.65;5.32;;;;;;;15.90;69.40;102091.03;5112928;28;20289;-45
2022/07/16 04:45:49;;;;;;;9.47;5.20;;;;;;;15.93;69.79;102092.63;5114453;28;20069;-47
2022/07/16 04:48:14;;;;;;;8.40;5.43;;;;;;;15.96;69.37;102093.25;5113561;28;20294;-47
2022/07/16 04:50:40;;;;;;;7.50;5.45;;;;;;;15.97;69.65;102100.31;5112505;28;20337;-46
2022/07/16 04:53:05;;;;;;;10.93;5.77;;;;;;;15.99;70.10;102101.03;5112134;28;20040;-49
2022/07/16 04:55:30;;;;;;;11.77;6.13;;;;;;;16.03;70.70;102101.66;5109022;28;20312;-45
2022/07/16 04:57:56;;;;;;;10.00;5.23;;;;;;;16.12;69.98;102100.03;5108543;28;20290;-49
2022/07/16 05:00:21;;;;;;;10.95;6.50;;;;;;;16.14;71.02;102106.13;5112243;28;20270;-46
2022/07/16 05:02:58;;;;;;;10.10;6.47;;;;;;;16.25;71.17;102112.34;5110046;28;20024;-47
2022/07/16 05:05:34;;;;;;;11.60;5.53;;;;;;;16.35;70.94;102117.81;5104083;28;20516;-47
2022/07/16 05:08:02;;;;;;;9.75;5.20;;;;;;;16.43;71.77;102103.78;5110781;28;20047;-46
2022/07/16 05:10:29;;;;;;;7.30;4.90;;;;;;;16.54;72.28;102105.59;5087099;28;20111;-48
2022/07/16 05:12:54;;;;;;;6.88;4.50;;;;;;;16.60;72.19;102108.63;5109914;28;20138;-46
2022/07/16 05:15:20;;;;;;;8.93;4.75;;;;;;;16.71;72.16;102112.25;5106141;28;20061;-45
2022/07/16 05:17:45;;;;;;;7.68;4.53;;;;;;;16.82;72.13;102120.28;5110124;28;20058;-47
2022/07/16 05:20:11;;;;;;;8.13;4.13;;;;;;;16.85;73.36;102119.19;5112096;28;20024;-47
2022/07/16 05:22:36;;;;;;;4.43;4.03;;;;;;;16.90;73.09;102117.81;5101232;28;20031;-46
2022/07/16 05:25:04;;;;;;;9.77;4.00;;;;;;;16.91;73.35;102124.91;5110842;28;20048;-47
2022/07/16 05:27:30;;;;;;;4.68;3.70;;;;;;;16.96;73.45;102132.56;5089590;28;20123;-46
2022/07/16 05:29:55;;;;;;;9.65;3.75;;;;;;;16.98;73.65;102130.59;5091771;28;20023;-46
2022/07/16 05:32:20;;;;;;;8.40;3.88;;;;;;;17.05;74.38;102130.94;5104248;28;20031;-46
2022/07/16 05:34:46;;;;;;;6.60;4.18;;;;;;;17.10;74.42;102132.28;5110098;28;20024;-45
2022/07/16 05:37:11;;;;;;;10.05;4.55;;;;;;;17.23;74.02;102131.22;5103546;28;20075;-47
2022/07/16 05:39:36;;;;;;;7.43;4.18;;;;;;;17.38;73.66;102125.38;5084158;28;20353;-48
2022/07/16 05:42:02;;;;;;;5.97;4.00;;;;;;;17.59;73.81;102129.09;5106339;28;20024;-47
2022/07/16 05:44:28;;;;;;;8.20;3.80;;;;;;;17.76;73.07;102137.38;5106145;28;20104;-46
2022/07/16 05:46:53;;;;;;;10.55;3.83;;;;;;;17.93;72.79;102133.22;5105017;28;20040;-46
2022/07/16 05:49:18;;;;;;;6.65;3.65;;;;;;;18.12;72.32;102135.16;5063288;28;20059;-45
2022/07/16 05:51:44;;;;;;;5.95;3.60;;;;;;;18.34;71.58;102137.81;5079937;28;20066;-45
2022/07/16 05:54:09;;;;;;;9.00;3.47;;;;;;;18.41;71.38;102139.78;5103049;28;20024;-46
2022/07/16 05:56:35;;;;;;;7.55;3.00;;;;;;;18.48;71.21;102130.19;5110470;28;20043;-46
2022/07/16 05:59:02;;;;;;;8.10;3.10;;;;;;;18.58;70.87;102132.88;5094453;28;20055;-45
2022/07/16 06:01:29;;;;;;;4.85;2.90;;;;;;;18.78;70.62;102135.63;5099608;28;20020;-47
2022/07/16 06:03:54;;;;;;;6.38;2.78;;;;;;;18.97;69.65;102141.06;5106303;28;20047;-45
2022/07/16 06:06:20;;;;;;;7.57;3.10;;;;;;;19.13;69.29;102143.16;5098366;28;20024;-48
2022/07/16 06:08:45;;;;;;;8.75;3.15;;;;;;;19.23;68.56;102146.72;5099250;28;20035;-48
2022/07/16 06:11:10;;;;;;;6.15;2.40;;;;;;;19.46;68.21;102148.25;5112030;28;20062;-47
2022/07/16 06:13:36;;;;;;;9.37;2.50;;;;;;;19.60;66.84;102156.75;5086993;28;20111;-46
2022/07/16 06:16:02;;;;;;;4.93;2.15;;;;;;;19.89;65.94;102166.63;5102459;28;20311;-47
2022/07/16 06:18:28;;;;;;;7.25;2.28;;;;;;;20.04;64.67;102169.69;5108935;28;20052;-47
2022/07/16 06:20:53;;;;;;;6.05;2.20;;;;;;;20.16;63.32;102167.66;5108501;28;20040;-46
2022/07/16 06:23:18;;;;;;;4.35;2.10;;;;;;;20.25;63.21;102168.59;5095584;28;20043;-49
2022/07/16 06:25:44;;;;;;;5.32;1.63;;;;;;;20.51;62.19;102164.22;5084430;28;20051;-47
2022/07/16 06:28:09;;;;;;;2.23;1.70;;;;;;;20.65;60.88;102167.44;5106832;28;20016;-45
2022/07/16 06:30:35;;;;;;;5.75;1.73;;;;;;;20.70;60.43;102178.66;5103357;28;20294;-46
2022/07/16 06:33:00;;;;;;;3.38;1.70;;;;;;;20.66;59.18;102177.25;5106352;28;20016;-45
2022/07/16 06:35:25;;;;;;;4.45;1.60;;;;;;;20.66;59.50;102180.78;5108732;28;20040;-46
2022/07/16 06:37:50;;;;;;;5.25;1.70;;;;;;;20.72;58.06;102186.56;5112616;28;20024;-46
2022/07/16 06:40:16;;;;;;;2.93;1.40;;;;;;;20.81;58.10;102177.56;5099458;28;20036;-45
2022/07/16 06:42:41;;;;;;;5.32;1.50;;;;;;;20.87;57.50;102188.63;5100309;28;20322;-47
2022/07/16 06:45:07;;;;;;;4.88;1.52;;;;;;;21.02;57.96;102191.63;5097989;28;20040;-47
2022/07/16 06:47:32;;;;;;;3.22;1.40;;;;;;;21.12;56.91;102186.16;5094887;28;20037;-46
2022/07/16 06:49:58;;;;;;;4.57;1.43;;;;;;;21.32;57.01;102186.00;5092276;28;20059;-45
2022/07/16 06:52:23;;;;;;;3.77;1.80;;;;;;;21.53;55.55;102191.97;5088998;28;20812;-46
2022/07/16 06:54:48;;;;;;;6.73;1.87;;;;;;;21.57;54.71;102193.31;5087683;28;20320;-48
2022/07/16 06:57:14;;;;;;;5.13;1.10;;;;;;;21.68;53.03;102197.63;5099273;28;20282;-47
2022/07/16 06:59:39;;;;;;;3.83;1.47;;;;;;;21.64;52.72;102204.34;5104517;28;20027;-46
2022/07/16 07:02:04;;;;;;;5.90;1.90;;;;;;;21.82;53.57;102207.03;5103141;28;20277;-46
2022/07/16 07:04:29;;;;;;;2.33;1.10;;;;;;;22.02;52.21;102218.50;5105480;28;20107;-48
2022/07/16 07:06:55;;;;;;;1.83;1.00;;;;;;;22.18;51.74;102212.31;5103567;28;20032;-45
2022/07/16 07:09:20;;;;;;;3.60;1.13;;;;;;;22.32;51.03;102213.63;5112713;28;20047;-46
2022/07/16 07:11:46;;;;;;;1.63;1.17;;;;;;;22.45;50.25;102223.97;5110993;28;20665;-46
2022/07/16 07:14:11;;;;;;;2.78;1.40;;;;;;;22.61;50.70;102215.06;5108979;28;20019;-46
2022/07/16 07:16:37;;;;;;;3.47;1.20;;;;;;;22.93;49.46;102217.03;5108682;28;20363;-46
2022/07/16 07:19:03;;;;;;;2.25;1.27;;;;;;;23.14;47.35;102229.31;5108721;28;20055;-47
2022/07/16 07:21:28;;;;;;;1.65;0.88;;;;;;;23.29;45.71;102230.34;5111377;28;20028;-47
2022/07/16 07:23:54;;;;;;;2.15;0.90;;;;;;;23.41;45.39;102233.56;5108806;28;20074;-46
2022/07/16 07:26:20;;;;;;;3.80;0.95;;;;;;;23.51;43.16;102228.81;5105297;28;20042;-46
2022/07/16 07:28:45;;;;;;;1.95;0.85;;;;;;;23.62;43.34;102233.06;5113302;28;20083;-45
2022/07/16 07:31:10;;;;;;;3.57;0.97;;;;;;;23.81;43.84;102238.13;5112530;28;20008;-50
2022/07/16 07:33:36;;;;;;;7.15;1.10;;;;;;;23.89;42.54;102231.88;5102601;28;20287;-47
2022/07/16 07:36:02;;;;;;;1.75;0.90;;;;;;;23.89;42.95;102234.59;5108805;28;20077;-48
2022/07/16 07:38:28;;;;;;;2.42;1.40;;;;;;;24.16;42.49;102241.50;5111199;28;20035;-48
2022/07/16 07:40:53;;;;;;;3.45;1.00;;;;;;;24.24;41.25;102235.19;5112911;28;20627;-47
2022/07/16 07:43:18;;;;;;;2.57;1.10;;;;;;;24.35;41.43;102233.97;5112429;28;20032;-48
2022/07/16 07:45:44;;;;;;;6.65;1.52;;;;;;;24.43;41.64;102241.22;5112250;28;20285;-47
2022/07/16 07:48:09;;;;;;;1.65;1.02;;;;;;;24.39;41.81;102236.13;5113452;28;20035;-47
2022/07/16 07:50:35;;;;;;;1.33;0.90;;;;;;;24.67;40.41;102246.59;5124573;28;20050;-47
2022/07/16 07:53:00;;;;;;;3.17;1.00;;;;;;;24.61;39.22;102251.88;5108426;28;20037;-46
2022/07/16 07:55:26;;;;;;;4.20;1.30;;;;;;;24.62;38.42;102248.16;5084212;28;20021;-47
2022/07/16 07:57:51;;;;;;;4.32;0.98;;;;;;;24.54;39.03;102254.44;5080739;28;20032;-45
2022/07/16 08:00:17;;;;;;;2.88;1.10;;;;;;;24.60;39.88;102250.19;5059142;28;20147;-44
2022/07/16 08:02:44;;;;;;;3.42;0.98;;;;;;;24.58;40.15;102258.53;5060000;28;20239;-45
2022/07/16 08:05:11;;;;;;;3.25;0.98;;;;;;;24.66;40.35;102249.47;5057252;28;20032;-44
2022/07/16 08:07:36;;;;;;;3.33;1.38;;;;;;;24.75;39.57;102265.56;5061713;28;20477;-47
2022/07/16 08:10:03;;;;;;;2.08;1.00;;;;;;;24.81;40.02;102260.44;5062428;28;20127;-45
2022/07/16 08:12:28;;;;;;;5.95;1.30;;;;;;;24.88;39.65;102258.72;5069888;28;20028;-47
2022/07/16 08:14:53;;;;;;;2.67;1.10;;;;;;;24.91;38.64;102264.66;5071921;28;20025;-46
2022/07/16 08:17:19;;;;;;;1.88;1.10;;;;;;;25.13;39.09;102273.03;5070357;28;20029;-44
2022/07/16 08:19:44;;;;;;;4.18;1.40;;;;;;;25.28;39.28;102276.69;5068447;28;20451;-45
2022/07/16 08:22:09;;;;;;;3.15;1.08;;;;;;;25.55;38.74;102274.44;5086452;28;20021;-49
2022/07/16 08:27:20;;;;;;;3.13;0.90;;;;;;;25.72;36.39;102279.75;5089178;28;20039;-47
2022/07/16 08:29:45;;;;;;;2.97;1.10;;;;;;;25.97;37.78;102281.25;5080755;28;20049;-42
2022/07/16 08:32:11;;;;;;;5.80;1.13;;;;;;;26.13;38.22;102282.09;5067328;28;20040;-42
2022/07/16 08:34:36;;;;;;;3.67;1.38;;;;;;;26.30;38.26;102283.63;5073156;28;20814;-43
2022/07/16 08:37:07;;;;;;;3.10;1.20;;;;;;;26.72;36.71;102282.13;5066561;28;20124;-46
2022/07/16 08:39:32;;;;;;;3.88;1.05;;;;;;;26.73;36.06;102292.00;5094517;28;20088;-47
2022/07/16 08:41:59;;;;;;;2.78;1.25;;;;;;;26.98;37.16;102299.00;5092567;28;20025;-47
2022/07/16 08:44:24;;;;;;;3.90;1.40;;;;;;;27.17;36.40;102301.13;5088424;28;20028;-46
2022/07/16 08:46:51;;;;;;;1.60;1.10;;;;;;;27.42;35.07;102301.63;5087331;28;20045;-45
2022/07/16 08:49:18;;;;;;;2.58;1.10;;;;;;;27.42;33.68;102308.97;5093305;28;20027;-45
2022/07/16 08:51:45;;;;;;;3.10;1.30;;;;;;;27.18;33.45;102305.56;5097354;28;20028;-46
2022/07/16 08:54:17;;;;;;;3.55;1.35;;;;;;;27.19;34.32;102311.84;5113344;28;20020;-46
2022/07/16 08:56:43;;;;;;;2.88;1.30;;;;;;;27.43;34.12;102307.94;5113055;28;20043;-44
2022/07/16 08:59:09;;;;;;;4.95;1.20;;;;;;;27.64;34.02;102318.84;5099672;28;20035;-46
2022/07/16 09:01:34;;;;;;;3.08;0.98;;;;;;;27.48;33.48;102308.22;5100092;28;20035;-45
2022/07/16 09:04:01;;;;;;;3.45;0.93;;;;;;;27.51;33.77;102313.25;5096932;28;20017;-43
2022/07/16 09:06:26;;;;;;;2.38;1.08;;;;;;;27.40;34.04;102321.97;5095104;28;20047;-45
2022/07/16 09:08:52;;;;;;;4.38;1.50;;;;;;;27.44;33.78;102318.66;5096976;28;20531;-44
2022/07/16 09:11:20;;;;;;;3.17;1.10;;;;;;;27.69;34.28;102321.84;5093849;28;20008;-44
2022/07/16 09:14:07;;;;;;;2.35;1.10;;;;;;;27.99;34.25;102320.88;5095199;28;20016;-44
2022/07/16 09:16:38;;;;;;;3.17;1.10;;;;;;;27.90;32.73;102313.84;5093935;28;20051;-46
2022/07/16 09:19:07;;;;;;;2.63;1.17;;;;;;;27.99;32.18;102320.88;5099281;28;20154;-45
2022/07/16 09:21:33;;;;;;;2.90;1.10;;;;;;;27.77;32.38;102325.47;5090132;28;20051;-47
2022/07/16 09:23:58;;;;;;;1.05;0.82;;;;;;;27.97;32.43;102331.97;5093760;28;20078;-44
2022/07/16 09:26:26;;;;;;;2.92;1.20;;;;;;;27.98;31.63;102325.50;5098845;28;20024;-47
2022/07/16 09:28:52;;;;;;;4.68;0.85;;;;;;;28.26;30.44;102321.88;5099213;28;20087;-45
2022/07/16 09:31:37;;;;;;;3.95;1.20;;;;;;;28.56;32.10;102327.16;5109075;28;20027;-47
2022/07/16 09:34:14;;;;;;;2.15;0.90;;;;;;;28.70;30.35;102323.47;5104771;28;20042;-48
2022/07/16 09:36:55;;;;;;;3.70;0.95;;;;;;;28.59;29.41;102321.28;5100581;28;20024;-48
2022/07/16 09:39:20;;;;;;;2.60;1.27;;;;;;;28.85;31.18;102326.06;5114705;28;20024;-48
2022/07/16 09:41:47;;;;;;;4.07;1.25;;;;;;;28.88;30.52;102333.84;5115339;28;20046;-50
2022/07/16 09:44:17;;;;;;;1.63;1.08;;;;;;;28.83;30.90;102330.03;5116799;28;20008;-47
2022/07/16 09:46:59;;;;;;;2.90;1.10;;;;;;;29.08;31.46;102328.47;5108144;28;20043;-47
2022/07/16 09:49:26;;;;;;;2.30;0.95;;;;;;;29.47;29.85;102343.31;5115714;28;20035;-48
2022/07/16 09:51:52;;;;;;;5.30;0.95;;;;;;;29.06;29.18;102340.63;5110405;28;20424;-48
2022/07/16 09:54:35;;;;;;;1.83;0.80;;;;;;;29.07;30.13;102347.81;5096737;28;20032;-49
2022/07/16 09:57:18;;;;;;;3.15;1.15;;;;;;;29.22;31.00;102348.53;5094669;28;20021;-48
2022/07/16 09:59:45;;;;;;;3.35;1.00;;;;;;;29.51;29.09;102341.00;5093338;28;20024;-46
2022/07/16 10:02:11;;;;;;;1.45;0.93;;;;;;;29.86;28.44;102338.97;5095177;28;20029;-47
2022/07/16 10:04:37;;;;;;;3.05;1.10;;;;;;;29.84;28.01;102349.31;5096178;28;20091;-47
2022/07/16 10:07:02;;;;;;;3.05;1.30;;;;;;;30.19;28.36;102354.53;5088201;28;20036;-46
2022/07/16 10:09:28;;;;;;;3.22;0.95;;;;;;;30.12;26.77;102342.75;5083023;28;20087;-45
2022/07/16 10:11:55;;;;;;;2.47;0.82;;;;;;;30.33;26.90;102346.34;5089652;28;20009;-49
2022/07/16 10:14:21;;;;;;;3.78;1.00;;;;;;;30.15;26.48;102357.94;5081870;28;20025;-46
2022/07/16 10:16:46;;;;;;;2.97;0.77;;;;;;;30.18;26.74;102355.63;5074122;28;20036;-47
2022/07/16 10:19:12;;;;;;;3.03;0.95;;;;;;;30.71;27.02;102351.09;5091776;28;20047;-47
2022/07/16 10:21:39;;;;;;;4.03;0.77;;;;;;;30.71;25.52;102345.63;5095661;28;20091;-48
2022/07/16 10:24:07;;;;;;;5.25;1.38;;;;;;;30.85;26.50;102365.63;5079833;28;20040;-45
2022/07/16 10:26:35;;;;;;;2.30;1.08;;;;;;;31.06;26.58;102361.75;5071189;28;20033;-44
2022/07/16 10:29:01;;;;;;;3.58;1.05;;;;;;;31.04;25.42;102358.41;5065192;28;20028;-44
2022/07/16 10:31:36;;;;;;;5.65;1.13;;;;;;;30.96;26.96;102363.09;5061473;28;20036;-45
2022/07/16 10:34:13;;;;;;;7.20;1.30;;;;;;;31.19;26.12;102364.44;5067667;28;20025;-49
2022/07/16 10:36:47;;;;;;;2.13;1.30;;;;;;;30.81;26.54;102362.47;5089278;28;20028;-46
2022/07/16 10:39:16;;;;;;;3.38;1.10;;;;;;;30.66;26.15;102378.31;5094360;28;20027;-47
2022/07/16 10:41:50;;;;;;;3.22;1.17;;;;;;;30.47;27.23;102369.09;5097424;28;20092;-47
2022/07/16 10:44:16;;;;;;;3.78;1.00;;;;;;;30.49;27.09;102369.72;5091141;28;20028;-46
2022/07/16 10:47:08;;;;;;;3.10;1.13;;;;;;;30.56;28.22;102368.66;5094685;28;20027;-48
2022/07/16 10:49:34;;;;;;;3.70;1.15;;;;;;;30.32;27.71;102378.34;5089996;28;20032;-46
2022/07/16 10:52:14;;;;;;;2.78;0.98;;;;;;;30.50;28.83;102371.41;5094107;28;20036;-48
2022/07/16 10:54:40;;;;;;;4.28;1.20;;;;;;;31.02;27.41;102368.75;5116204;28;20072;-46
2022/07/16 10:57:11;;;;;;;6.72;1.10;;;;;;;31.07;27.68;102379.91;5116111;28;20023;-47
2022/07/16 10:59:39;;;;;;;4.22;1.20;;;;;;;30.96;26.30;102378.69;5115992;27;20119;-47
2022/07/16 11:02:09;;;;;;;3.30;1.03;;;;;;;30.80;26.78;102377.25;5107729;28;20080;-45
2022/07/16 11:04:38;;;;;;;3.13;1.33;;;;;;;30.29;27.52;102388.91;5111030;28;20047;-45
2022/07/16 11:07:09;;;;;;;3.67;1.10;;;;;;;30.20;28.08;102377.34;5097563;28;20025;-47
2022/07/16 11:09:38;;;;;;;3.40;1.02;;;;;;;30.16;27.36;102381.53;5115377;28;20031;-45
2022/07/16 11:12:06;;;;;;;1.83;1.27;;;;;;;30.53;27.94;102379.22;5106953;28;20078;-46
2022/07/16 11:14:32;;;;;;;5.45;1.20;;;;;;;30.74;26.60;102378.09;5100914;28;20050;-48
2022/07/16 11:16:58;;;;;;;3.33;1.08;;;;;;;30.64;26.76;102392.25;5108600;28;20043;-46
2022/07/16 11:19:24;;;;;;;5.07;1.30;;;;;;;30.31;26.98;102387.66;5115133;27;20061;-48
2022/07/16 11:21:55;;;;;;;2.17;1.10;;;;;;;30.22;28.13;102395.22;5114455;28;20024;-44
2022/07/16 11:24:21;;;;;;;1.48;1.10;;;;;;;29.87;27.76;102389.13;5112891;28;20043;-48
2022/07/16 11:26:48;;;;;;;2.40;1.30;;;;;;;30.02;27.42;102386.19;5115494;28;20058;-46
2022/07/16 11:29:13;;;;;;;2.45;1.25;;;;;;;30.17;26.89;102389.53;5116029;28;20079;-48